Tavda, Russia
Current Conditions -  °F | °C
As of 9:30 PM on Monday 26 Jan 2015 (Local Time) from USTR Reporting Station
Blowing Snow Blowing Snow  
Wind Chill:   Ceiling: Unl
Heat Index: 16°   Visibility: 4mi
Dew Point:   Wind: 18mph
Humidity: 62%   Direction: 230°SW
Pressure: 30.33"   Gusts: 25mph
Location:  58.05°N, 65.26°E
Report Text: USTR 261630Z 23008G11MPS 6000 BLSN SCT046 M09/M15 Q1027 NOSIGRMK QFE760/1014 21390060 30750029
Loading
Personal Weather Stations






























Interactive Weather Map New forecast layout! Learn more

10-Day Weather Forecast

Advertisements
Track Severe Weather on mobile